Time,TemperatureF,DewpointF,PressureIn,WindDirection,WindDirectionDegrees,WindSpeedMPH,WindSpeedGustMPH,Humidity,HourlyPrecipIn,Conditions,Clouds,dailyrainin,SoftwareType,DateUTC
2013-04-24 00:03:00,52.0,44.0,30.23,South,180,1.0,-999.0,75,-99.99,,,-99.99,,2013-04-24 04:03:00,
2013-04-24 00:12:00,52.0,44.0,30.23,South,180,1.0,-999.0,75,-99.99,,,-99.99,,2013-04-24 04:12:00,
2013-04-24 00:23:00,52.0,45.0,30.23,South,182,0.0,-999.0,77,-99.99,,,-99.99,,2013-04-24 04:23:00,
2013-04-24 00:33:00,52.0,45.0,30.23,South,182,0.0,-999.0,77,-99.99,,,-99.99,,2013-04-24 04:33:00,
2013-04-24 00:43:00,52.0,45.0,30.23,South,182,0.0,-999.0,77,-99.99,,,-99.99,,2013-04-24 04:43:00,
2013-04-24 00:52:00,52.0,45.0,30.23,SW,231,2.0,-999.0,78,-99.99,,,-99.99,,2013-04-24 04:52:00,
2013-04-24 01:02:00,52.0,45.0,30.23,SW,231,2.0,-999.0,78,-99.99,,,-99.99,,2013-04-24 05:02:00,
2013-04-24 01:13:00,52.0,45.0,30.23,SW,231,2.0,-999.0,78,-99.99,,,-99.99,,2013-04-24 05:13:00,
2013-04-24 01:22:00,52.0,45.0,30.23,SW,231,2.0,-999.0,78,-99.99,,,-99.99,,2013-04-24 05:22:00,
2013-04-24 01:32:00,51.0,45.0,30.21,SW,234,1.0,-999.0,80,-99.99,,,-99.99,,2013-04-24 05:32:00,
2013-04-24 01:42:00,51.0,45.0,30.21,SW,234,1.0,-999.0,80,-99.99,,,-99.99,,2013-04-24 05:42:00,
2013-04-24 01:52:00,51.0,45.0,30.21,SW,234,0.0,-999.0,80,-99.99,,,-99.99,,2013-04-24 05:52:00,
2013-04-24 02:02:00,51.0,45.0,30.20,SW,234,1.0,-999.0,81,-99.99,,,-99.99,,2013-04-24 06:02:00,
2013-04-24 02:12:00,51.0,45.0,30.20,SW,234,1.0,-999.0,81,-99.99,,,-99.99,,2013-04-24 06:12:00,
2013-04-24 02:22:00,51.0,45.0,30.20,WNW,291,1.0,-999.0,81,-99.99,,,-99.99,,2013-04-24 06:22:00,
2013-04-24 02:33:00,51.0,45.0,30.19,ESE,107,1.0,-999.0,81,-99.99,,,-99.99,,2013-04-24 06:33:00,
2013-04-24 02:42:00,51.0,45.0,30.19,ESE,107,1.0,-999.0,81,-99.99,,,-99.99,,2013-04-24 06:42:00,
2013-04-24 02:51:00,51.0,45.0,30.19,SE,134,1.0,-999.0,81,-99.99,,,-99.99,,2013-04-24 06:51:00,
2013-04-24 03:02:00,51.0,45.0,30.18,SW,221,0.0,-999.0,80,-99.99,,,-99.99,,2013-04-24 07:02:00,
2013-04-24 03:11:00,51.0,45.0,30.18,SW,221,0.0,-999.0,80,-99.99,,,-99.99,,2013-04-24 07:11:00,
2013-04-24 03:22:00,49.0,44.0,30.18,SW,234,1.0,-999.0,84,-99.99,,,-99.99,,2013-04-24 07:22:00,
2013-04-24 03:32:00,50.0,45.0,30.18,South,180,1.0,-999.0,84,-99.99,,,-99.99,,2013-04-24 07:32:00,
2013-04-24 03:42:00,50.0,45.0,30.18,South,180,1.0,-999.0,84,-99.99,,,-99.99,,2013-04-24 07:42:00,
2013-04-24 03:52:00,49.0,44.0,30.18,SW,231,1.0,-999.0,83,-99.99,,,-99.99,,2013-04-24 07:52:00,
2013-04-24 04:02:00,49.0,45.0,30.18,SW,231,0.0,-999.0,86,-99.99,,,-99.99,,2013-04-24 08:02:00,
2013-04-24 04:12:00,49.0,45.0,30.18,SW,231,0.0,-999.0,86,-99.99,,,-99.99,,2013-04-24 08:12:00,
2013-04-24 04:21:00,49.0,45.0,30.18,SSW,200,0.0,-999.0,85,-99.99,,,-99.99,,2013-04-24 08:21:00,
2013-04-24 04:33:00,49.0,45.0,30.18,SW,217,0.0,-999.0,85,-99.99,,,-99.99,,2013-04-24 08:33:00,
2013-04-24 04:42:00,49.0,45.0,30.18,SW,217,0.0,-999.0,85,-99.99,,,-99.99,,2013-04-24 08:42:00,
2013-04-24 04:52:00,48.0,44.0,30.18,SW,219,1.0,-999.0,87,-99.99,,,-99.99,,2013-04-24 08:52:00,
2013-04-24 05:02:00,48.0,45.0,30.18,WNW,286,2.0,-999.0,88,-99.99,,,-99.99,,2013-04-24 09:02:00,
2013-04-24 05:12:00,48.0,45.0,30.18,WNW,286,2.0,-999.0,88,-99.99,,,-99.99,,2013-04-24 09:12:00,
2013-04-24 05:21:00,48.0,45.0,30.17,WNW,286,0.0,-999.0,88,-99.99,,,-99.99,,2013-04-24 09:21:00,
2013-04-24 05:33:00,48.0,45.0,30.16,WNW,286,1.0,-999.0,88,-99.99,,,-99.99,,2013-04-24 09:33:00,
2013-04-24 05:42:00,48.0,45.0,30.16,WNW,286,1.0,-999.0,88,-99.99,,,-99.99,,2013-04-24 09:42:00,
2013-04-24 05:53:00,47.0,45.0,30.16,WNW,286,2.0,-999.0,91,-99.99,,,-99.99,,2013-04-24 09:53:00,
2013-04-24 06:02:00,46.0,43.0,30.16,WNW,286,1.0,-999.0,90,-99.99,,,-99.99,,2013-04-24 10:02:00,
2013-04-24 06:12:00,46.0,43.0,30.16,WNW,286,1.0,-999.0,90,-99.99,,,-99.99,,2013-04-24 10:12:00,
2013-04-24 06:23:00,46.0,44.0,30.16,WNW,286,1.0,-999.0,91,-99.99,,,-99.99,,2013-04-24 10:23:00,
2013-04-24 06:33:00,45.0,43.0,30.17,WNW,286,0.0,-999.0,92,-99.99,,,-99.99,,2013-04-24 10:33:00,
2013-04-24 06:42:00,45.0,43.0,30.17,WNW,286,0.0,-999.0,92,-99.99,,,-99.99,,2013-04-24 10:42:00,
2013-04-24 06:52:00,45.0,43.0,30.16,WNW,286,0.0,-999.0,94,-99.99,,,-99.99,,2013-04-24 10:52:00,
2013-04-24 07:03:00,45.0,43.0,30.16,WNW,286,1.0,-999.0,92,-99.99,,,-99.99,,2013-04-24 11:03:00,
2013-04-24 07:12:00,45.0,43.0,30.16,WNW,286,1.0,-999.0,92,-99.99,,,-99.99,,2013-04-24 11:12:00,
2013-04-24 07:21:00,44.0,42.0,30.16,WNW,286,0.0,-999.0,94,-99.99,,,-99.99,,2013-04-24 11:21:00,
2013-04-24 07:32:00,44.0,42.0,30.16,WNW,286,0.0,-999.0,93,-99.99,,,-99.99,,2013-04-24 11:32:00,
2013-04-24 07:42:00,44.0,42.0,30.16,WNW,286,0.0,-999.0,93,-99.99,,,-99.99,,2013-04-24 11:42:00,
2013-04-24 07:52:00,44.0,43.0,30.16,WNW,286,1.0,-999.0,95,-99.99,,,-99.99,,2013-04-24 11:52:00,
2013-04-24 08:02:00,45.0,44.0,30.16,WNW,286,0.0,-999.0,96,-99.99,,,-99.99,,2013-04-24 12:02:00,
2013-04-24 08:12:00,45.0,44.0,30.16,WNW,286,0.0,-999.0,96,-99.99,,,-99.99,,2013-04-24 12:12:00,
2013-04-24 08:22:00,45.0,43.0,30.16,WNW,286,0.0,-999.0,94,-99.99,,,-99.99,,2013-04-24 12:22:00,
2013-04-24 08:32:00,47.0,45.0,30.16,WNW,286,0.0,-999.0,94,-99.99,,,-99.99,,2013-04-24 12:32:00,
2013-04-24 08:42:00,47.0,45.0,30.16,WNW,286,0.0,-999.0,94,-99.99,,,-99.99,,2013-04-24 12:42:00,
2013-04-24 08:52:00,50.0,47.0,30.15,WNW,286,0.0,-999.0,91,-99.99,,,-99.99,,2013-04-24 12:52:00,
2013-04-24 09:01:00,51.0,46.0,30.15,WNW,286,0.0,-999.0,82,-99.99,,,-99.99,,2013-04-24 13:01:00,
2013-04-24 09:12:00,51.0,46.0,30.15,WNW,286,0.0,-999.0,82,-99.99,,,-99.99,,2013-04-24 13:12:00,
2013-04-24 09:22:00,53.0,46.0,30.14,WNW,286,1.0,-999.0,77,-99.99,,,-99.99,,2013-04-24 13:22:00,
2013-04-24 09:32:00,55.0,47.0,30.14,WNW,286,0.0,-999.0,75,-99.99,,,-99.99,,2013-04-24 13:32:00,
2013-04-24 09:41:00,55.0,47.0,30.14,WNW,286,0.0,-999.0,75,-99.99,,,-99.99,,2013-04-24 13:41:00,
2013-04-24 09:52:00,56.0,47.0,30.14,WNW,286,0.0,-999.0,71,-99.99,,,-99.99,,2013-04-24 13:52:00,
2013-04-24 10:01:00,58.0,47.0,30.13,WNW,286,0.0,-999.0,68,-99.99,,,-99.99,,2013-04-24 14:01:00,
2013-04-24 10:11:00,58.0,47.0,30.13,WNW,286,0.0,-999.0,68,-99.99,,,-99.99,,2013-04-24 14:11:00,
2013-04-24 10:21:00,60.0,48.0,30.12,SW,236,2.0,-999.0,65,-99.99,,,-99.99,,2013-04-24 14:21:00,
2013-04-24 10:32:00,60.0,47.0,30.12,SSW,195,2.0,-999.0,63,-99.99,,,-99.99,,2013-04-24 14:32:00,
2013-04-24 10:42:00,60.0,47.0,30.12,SSW,195,2.0,-999.0,63,-99.99,,,-99.99,,2013-04-24 14:42:00,
2013-04-24 10:51:00,61.0,47.0,30.11,SE,141,2.0,-999.0,61,-99.99,,,-99.99,,2013-04-24 14:51:00,
2013-04-24 11:01:00,63.0,48.0,30.10,SE,138,3.0,-999.0,58,-99.99,,,-99.99,,2013-04-24 15:01:00,
2013-04-24 11:11:00,63.0,48.0,30.10,SE,138,3.0,-999.0,58,-99.99,,,-99.99,,2013-04-24 15:11:00,
2013-04-24 11:22:00,64.0,47.0,30.09,West,259,8.0,-999.0,54,-99.99,,,-99.99,,2013-04-24 15:22:00,
2013-04-24 11:33:00,65.0,49.0,30.09,South,188,7.0,-999.0,57,-99.99,,,-99.99,,2013-04-24 15:33:00,
2013-04-24 11:43:00,65.0,49.0,30.09,South,188,7.0,-999.0,57,-99.99,,,-99.99,,2013-04-24 15:43:00,
2013-04-24 11:53:00,65.0,46.0,30.08,WSW,248,9.0,-999.0,51,-99.99,,,-99.99,,2013-04-24 15:53:00,
2013-04-24 12:03:00,66.0,47.0,30.08,SE,144,8.0,-999.0,50,-99.99,,,-99.99,,2013-04-24 16:03:00,
2013-04-24 12:12:00,66.0,47.0,30.08,SE,144,8.0,-999.0,50,-99.99,,,-99.99,,2013-04-24 16:12:00,
2013-04-24 12:23:00,67.0,48.0,30.09,South,189,9.0,-999.0,50,-99.99,,,-99.99,,2013-04-24 16:23:00,
2013-04-24 12:32:00,66.0,46.0,30.10,SE,137,9.0,-999.0,49,-99.99,,,-99.99,,2013-04-24 16:32:00,
2013-04-24 12:42:00,66.0,46.0,30.10,SE,137,9.0,-999.0,49,-99.99,,,-99.99,,2013-04-24 16:42:00,
2013-04-24 12:52:00,65.0,46.0,30.10,SSW,213,8.0,-999.0,51,-99.99,,,-99.99,,2013-04-24 16:52:00,
2013-04-24 13:02:00,65.0,48.0,30.10,South,185,8.0,-999.0,55,-99.99,,,-99.99,,2013-04-24 17:02:00,
2013-04-24 13:12:00,65.0,48.0,30.10,South,185,8.0,-999.0,55,-99.99,,,-99.99,,2013-04-24 17:12:00,
2013-04-24 13:22:00,65.0,48.0,30.10,SW,227,8.0,-999.0,55,-99.99,,,-99.99,,2013-04-24 17:22:00,
2013-04-24 13:32:00,67.0,50.0,30.08,SE,140,6.0,-999.0,54,-99.99,,,-99.99,,2013-04-24 17:32:00,
2013-04-24 13:42:00,67.0,50.0,30.08,SE,140,6.0,-999.0,54,-99.99,,,-99.99,,2013-04-24 17:42:00,
2013-04-24 13:51:00,68.0,50.0,30.08,South,190,8.0,-999.0,53,-99.99,,,-99.99,,2013-04-24 17:51:00,
2013-04-24 14:02:00,68.0,50.0,30.08,SE,138,8.0,-999.0,52,-99.99,,,-99.99,,2013-04-24 18:02:00,
2013-04-24 14:12:00,68.0,50.0,30.08,SE,138,8.0,-999.0,52,-99.99,,,-99.99,,2013-04-24 18:12:00,
2013-04-24 14:22:00,69.0,51.0,30.08,SW,228,7.0,-999.0,52,-99.99,,,-99.99,,2013-04-24 18:22:00,
2013-04-24 14:33:00,69.0,51.0,30.07,SSW,199,5.0,-999.0,52,-99.99,,,-99.99,,2013-04-24 18:33:00,
2013-04-24 14:43:00,69.0,51.0,30.07,SSW,199,5.0,-999.0,52,-99.99,,,-99.99,,2013-04-24 18:43:00,
2013-04-24 14:52:00,69.0,50.0,30.06,WSW,238,5.0,-999.0,51,-99.99,,,-99.99,,2013-04-24 18:52:00,
2013-04-24 15:02:00,68.0,51.0,30.06,SW,227,7.0,-999.0,54,-99.99,,,-99.99,,2013-04-24 19:02:00,
2013-04-24 15:12:00,68.0,51.0,30.06,SW,227,7.0,-999.0,54,-99.99,,,-99.99,,2013-04-24 19:12:00,
2013-04-24 15:22:00,69.0,52.0,30.06,SSW,192,8.0,-999.0,54,-99.99,,,-99.99,,2013-04-24 19:22:00,
2013-04-24 15:32:00,69.0,52.0,30.05,SW,219,8.0,-999.0,55,-99.99,,,-99.99,,2013-04-24 19:32:00,
2013-04-24 15:42:00,69.0,52.0,30.05,SW,219,8.0,-999.0,55,-99.99,,,-99.99,,2013-04-24 19:42:00,
2013-04-24 15:52:00,68.0,52.0,30.04,SW,225,9.0,-999.0,57,-99.99,,,-99.99,,2013-04-24 19:52:00,
2013-04-24 16:02:00,68.0,52.0,30.03,West,269,7.0,-999.0,57,-99.99,,,-99.99,,2013-04-24 20:02:00,
2013-04-24 16:11:00,68.0,52.0,30.03,West,269,7.0,-999.0,57,-99.99,,,-99.99,,2013-04-24 20:11:00,
2013-04-24 16:22:00,68.0,52.0,30.03,SW,233,10.0,-999.0,57,-99.99,,,-99.99,,2013-04-24 20:22:00,
2013-04-24 16:32:00,67.0,53.0,30.03,SSW,202,9.0,-999.0,60,-99.99,,,-99.99,,2013-04-24 20:32:00,
2013-04-24 16:42:00,67.0,53.0,30.03,SSW,202,9.0,-999.0,60,-99.99,,,-99.99,,2013-04-24 20:42:00,
2013-04-24 16:52:00,67.0,53.0,30.02,West,259,7.0,-999.0,60,-99.99,,,-99.99,,2013-04-24 20:52:00,
2013-04-24 17:02:00,68.0,54.0,30.02,WSW,239,5.0,-999.0,61,-99.99,,,-99.99,,2013-04-24 21:02:00,
2013-04-24 17:12:00,68.0,54.0,30.02,WSW,239,5.0,-999.0,61,-99.99,,,-99.99,,2013-04-24 21:12:00,
2013-04-24 17:22:00,64.0,52.0,30.05,West,262,18.0,-999.0,65,-99.99,,,-99.99,,2013-04-24 21:22:00,
2013-04-24 17:33:00,62.0,52.0,30.04,NNW,345,17.0,-999.0,71,-99.99,,,-99.99,,2013-04-24 21:33:00,
2013-04-24 17:42:00,62.0,52.0,30.04,NNW,345,17.0,-999.0,71,-99.99,,,-99.99,,2013-04-24 21:42:00,
2013-04-24 17:52:00,62.0,50.0,30.06,WNW,284,22.0,-999.0,64,-99.99,,,-99.99,,2013-04-24 21:52:00,
2013-04-24 18:03:00,63.0,50.0,30.06,WNW,284,17.0,-999.0,63,-99.99,,,-99.99,,2013-04-24 22:03:00,
2013-04-24 18:12:00,63.0,50.0,30.06,WNW,284,17.0,-999.0,63,-99.99,,,-99.99,,2013-04-24 22:12:00,
2013-04-24 18:22:00,63.0,50.0,30.05,WSW,254,13.0,-999.0,63,-99.99,,,-99.99,,2013-04-24 22:22:00,
2013-04-24 18:33:00,61.0,51.0,30.05,West,272,12.0,-999.0,70,-99.99,,,-99.99,,2013-04-24 22:33:00,
2013-04-24 18:42:00,61.0,51.0,30.05,West,272,12.0,-999.0,70,-99.99,,,-99.99,,2013-04-24 22:42:00,
2013-04-24 18:52:00,60.0,52.0,30.06,NW,311,13.0,-999.0,74,-99.99,,,-99.99,,2013-04-24 22:52:00,
2013-04-24 19:02:00,60.0,52.0,30.06,NW,309,13.0,-999.0,75,-99.99,,,-99.99,,2013-04-24 23:02:00,
2013-04-24 19:12:00,60.0,52.0,30.06,NW,309,13.0,-999.0,75,-99.99,,,-99.99,,2013-04-24 23:12:00,
2013-04-24 19:21:00,61.0,52.0,30.06,WNW,288,10.0,-999.0,73,-99.99,,,-99.99,,2013-04-24 23:21:00,
2013-04-24 19:32:00,61.0,53.0,30.06,West,273,10.0,-999.0,74,-99.99,,,-99.99,,2013-04-24 23:32:00,
2013-04-24 19:42:00,61.0,53.0,30.06,West,273,10.0,-999.0,74,-99.99,,,-99.99,,2013-04-24 23:42:00,
2013-04-24 19:52:00,61.0,53.0,30.07,West,259,8.0,-999.0,74,-99.99,,,-99.99,,2013-04-24 23:52:00,
2013-04-24 20:02:00,61.0,53.0,30.06,WNW,294,10.0,-999.0,75,-99.99,,,-99.99,,2013-04-25 00:02:00,
2013-04-24 20:12:00,61.0,53.0,30.06,WNW,294,10.0,-999.0,75,-99.99,,,-99.99,,2013-04-25 00:12:00,
2013-04-24 20:22:00,60.0,53.0,30.07,WNW,300,8.0,-999.0,77,-99.99,,,-99.99,,2013-04-25 00:22:00,
2013-04-24 20:32:00,59.0,54.0,30.07,NNW,328,7.0,-999.0,82,-99.99,,,-99.99,,2013-04-25 00:32:00,
2013-04-24 20:42:00,59.0,54.0,30.07,NNW,328,7.0,-999.0,82,-99.99,,,-99.99,,2013-04-25 00:42:00,
2013-04-24 20:52:00,58.0,54.0,30.07,NNW,331,6.0,-999.0,85,-99.99,,,-99.99,,2013-04-25 00:52:00,
2013-04-24 21:02:00,58.0,53.0,30.07,NW,310,3.0,-999.0,84,-99.99,,,-99.99,,2013-04-25 01:02:00,
2013-04-24 21:11:00,58.0,53.0,30.07,NW,310,3.0,-999.0,84,-99.99,,,-99.99,,2013-04-25 01:11:00,
2013-04-24 21:23:00,59.0,53.0,30.07,West,263,4.0,-999.0,81,-99.99,,,-99.99,,2013-04-25 01:23:00,
2013-04-24 21:32:00,59.0,54.0,30.08,West,267,7.0,-999.0,82,-99.99,,,-99.99,,2013-04-25 01:32:00,
2013-04-24 21:42:00,59.0,54.0,30.08,West,267,7.0,-999.0,82,-99.99,,,-99.99,,2013-04-25 01:42:00,
2013-04-24 21:52:00,57.0,53.0,30.09,West,280,6.0,-999.0,88,-99.99,,,-99.99,,2013-04-25 01:52:00,
2013-04-24 22:02:00,57.0,53.0,30.10,NNE,23,8.0,-999.0,88,-99.99,,,-99.99,,2013-04-25 02:02:00,
2013-04-24 22:11:00,57.0,53.0,30.10,NNE,23,8.0,-999.0,88,-99.99,,,-99.99,,2013-04-25 02:11:00,
2013-04-24 22:22:00,54.0,51.0,30.11,NNW,346,7.0,-999.0,89,-99.99,,,-99.99,,2013-04-25 02:22:00,
2013-04-24 22:32:00,52.0,49.0,30.14,NNW,342,8.0,-999.0,91,-99.99,,,-99.99,,2013-04-25 02:32:00,
2013-04-24 22:42:00,52.0,49.0,30.14,NNW,342,8.0,-999.0,91,-99.99,,,-99.99,,2013-04-25 02:42:00,
2013-04-24 22:51:00,52.0,49.0,30.14,NNW,342,8.0,-999.0,91,-99.99,,,-99.99,,2013-04-25 02:51:00,
2013-04-24 23:02:00,49.0,46.0,30.16,NNE,19,8.0,-999.0,89,-99.99,,,-99.99,,2013-04-25 03:02:00,
2013-04-24 23:11:00,49.0,46.0,30.16,NNE,19,8.0,-999.0,89,-99.99,,,-99.99,,2013-04-25 03:11:00,
2013-04-24 23:22:00,48.0,45.0,30.16,NNW,327,10.0,-999.0,88,-99.99,,,-99.99,,2013-04-25 03:22:00,
2013-04-24 23:33:00,47.0,44.0,30.16,NW,309,10.0,-999.0,90,-99.99,,,-99.99,,2013-04-25 03:33:00,
2013-04-24 23:43:00,47.0,44.0,30.16,NW,309,10.0,-999.0,90,-99.99,,,-99.99,,2013-04-25 03:43:00,
2013-04-24 23:52:00,47.0,44.0,30.16,WNW,300,10.0,-999.0,90,-99.99,,,-99.99,,2013-04-25 03:52:00,